Time;durP1;ratioP1;P1;durP2;ratioP2;P2;SDS_P1;SDS_P2;PMS_P1;PMS_P2;Temp;Humidity;BMP_temperature;BMP_pressure;BME280_temperature;BME280_humidity;BME280_pressure;Samples;Min_cycle;Max_cycle;Signal;HPM_P1;HPM_P2
2022/04/23 00:02:11;;;;;;;45.40;26.10;;;11.90;99.90;;;;;;5042553;28;20049;-78
2022/04/23 00:04:38;;;;;;;58.58;36.08;;;11.90;99.90;;;;;;5042565;28;20050;-80
2022/04/23 00:07:06;;;;;;;48.78;29.63;;;11.90;99.90;;;;;;5043030;28;20049;-79
2022/04/23 00:09:35;;;;;;;44.05;26.27;;;11.90;99.90;;;;;;5041023;28;20053;-80
2022/04/23 00:12:03;;;;;;;44.65;27.98;;;11.80;99.90;;;;;;5042547;28;20041;-82
2022/04/23 00:14:34;;;;;;;39.63;25.10;;;11.80;99.90;;;;;;5042633;28;20405;-80
2022/04/23 00:17:01;;;;;;;44.08;23.92;;;11.80;99.90;;;;;;5042718;28;20049;-81
2022/04/23 00:19:28;;;;;;;43.67;25.27;;;11.80;99.90;;;;;;5043660;28;20109;-81
2022/04/23 00:21:56;;;;;;;42.00;25.08;;;11.70;99.90;;;;;;5041335;28;20053;-80
2022/04/23 00:24:23;;;;;;;40.95;24.27;;;11.70;99.90;;;;;;5042796;28;20042;-80
2022/04/23 00:26:51;;;;;;;45.10;25.42;;;11.70;99.90;;;;;;5042908;28;20051;-79
2022/04/23 00:29:18;;;;;;;43.75;25.02;;;11.70;99.90;;;;;;5042274;28;20071;-80
2022/04/23 00:31:47;;;;;;;46.65;28.25;;;11.70;99.90;;;;;;5042086;28;20045;-80
2022/04/23 00:34:14;;;;;;;50.55;30.90;;;11.60;99.90;;;;;;5041726;28;20039;-80
2022/04/23 00:36:42;;;;;;;49.50;32.25;;;11.60;99.90;;;;;;5042458;28;20071;-80
2022/04/23 00:39:10;;;;;;;42.67;28.88;;;11.50;99.90;;;;;;5040287;28;20076;-81
2022/04/23 00:41:46;;;;;;;42.17;27.83;;;11.40;99.90;;;;;;5045092;28;20046;-80
2022/04/23 00:44:14;;;;;;;45.33;27.48;;;11.40;99.90;;;;;;5046548;28;20056;-79
2022/04/23 00:46:43;;;;;;;44.72;29.02;;;11.40;99.90;;;;;;5045259;28;20049;-81
2022/04/23 00:49:12;;;;;;;41.58;27.60;;;11.40;99.90;;;;;;5045604;28;20175;-80
2022/04/23 00:51:41;;;;;;;47.38;27.40;;;11.30;99.90;;;;;;5047058;28;20152;-80
2022/04/23 00:54:10;;;;;;;43.05;29.02;;;11.30;99.90;;;;;;5048158;28;20053;-79
2022/04/23 00:56:38;;;;;;;44.42;24.25;;;11.30;99.90;;;;;;5050890;28;20059;-80
2022/04/23 00:59:08;;;;;;;40.33;25.02;;;11.30;99.90;;;;;;5057408;28;20045;-79
2022/04/23 01:01:36;;;;;;;43.50;27.38;;;11.20;99.90;;;;;;5048317;28;20045;-80
2022/04/23 01:04:05;;;;;;;40.33;26.13;;;11.20;99.90;;;;;;5040864;28;20041;-78
2022/04/23 01:06:35;;;;;;;42.10;26.67;;;11.00;99.90;;;;;;5038932;28;20041;-79
2022/04/23 01:09:04;;;;;;;45.85;27.08;;;11.00;99.90;;;;;;5060580;28;20575;-78
2022/04/23 01:11:32;;;;;;;43.20;26.83;;;11.00;99.90;;;;;;5043317;28;20041;-78
2022/04/23 01:14:00;;;;;;;41.10;26.75;;;11.00;99.90;;;;;;5045811;28;20121;-79
2022/04/23 01:16:28;;;;;;;34.75;23.20;;;10.90;99.90;;;;;;5047065;28;20061;-78
2022/04/23 01:18:55;;;;;;;32.63;22.33;;;10.90;99.90;;;;;;5046328;28;20060;-79
2022/04/23 01:21:26;;;;;;;31.65;21.23;;;11.00;99.90;;;;;;5047282;28;20060;-78
2022/04/23 01:23:54;;;;;;;36.03;20.92;;;11.00;99.90;;;;;;5047896;28;20046;-80
2022/04/23 01:26:27;;;;;;;36.53;22.48;;;11.10;99.90;;;;;;5043279;28;20120;-80
2022/04/23 01:28:55;;;;;;;90.25;54.25;;;11.10;99.90;;;;;;5042715;28;20041;-80
2022/04/23 01:31:23;;;;;;;33.72;21.02;;;11.10;99.90;;;;;;5039838;28;20053;-79
2022/04/23 01:33:50;;;;;;;41.78;22.30;;;11.00;99.90;;;;;;5040837;28;20045;-79
2022/04/23 01:36:18;;;;;;;34.58;22.10;;;11.00;99.90;;;;;;5040745;28;20044;-81
2022/04/23 01:38:47;;;;;;;33.53;21.25;;;11.00;99.90;;;;;;5041337;28;20042;-80
2022/04/23 01:41:14;;;;;;;35.08;21.45;;;11.00;99.90;;;;;;5040018;28;20103;-81
2022/04/23 01:43:42;;;;;;;34.10;20.60;;;11.00;99.90;;;;;;5039345;28;20052;-80
2022/04/23 01:46:09;;;;;;;37.65;20.40;;;11.10;99.90;;;;;;5040720;28;20050;-79
2022/04/23 01:48:37;;;;;;;31.20;20.65;;;11.10;99.90;;;;;;5040166;28;20557;-79
2022/04/23 01:51:04;;;;;;;35.70;20.88;;;11.10;99.90;;;;;;5038998;28;20064;-80
2022/04/23 01:53:32;;;;;;;34.92;22.08;;;11.10;99.90;;;;;;5038921;28;20060;-80
2022/04/23 01:56:01;;;;;;;39.35;21.58;;;11.00;99.90;;;;;;5038009;28;20037;-79
2022/04/23 01:58:28;;;;;;;37.35;22.17;;;11.00;99.90;;;;;;5040161;28;20493;-80
2022/04/23 02:00:55;;;;;;;34.33;21.25;;;11.00;99.90;;;;;;5051193;28;20068;-78
2022/04/23 02:03:23;;;;;;;32.88;20.55;;;10.90;99.90;;;;;;5056586;28;20025;-80
2022/04/23 02:05:50;;;;;;;29.73;19.90;;;10.70;99.90;;;;;;5038732;28;20045;-80
2022/04/23 02:08:18;;;;;;;37.50;24.27;;;10.60;99.90;;;;;;5039674;28;20037;-80
2022/04/23 02:10:47;;;;;;;39.80;26.08;;;10.50;99.90;;;;;;5043839;28;20047;-80
2022/04/23 02:13:16;;;;;;;38.70;24.02;;;10.50;99.90;;;;;;5042212;28;20091;-79
2022/04/23 02:15:44;;;;;;;36.95;23.60;;;10.40;99.90;;;;;;5038736;28;20045;-82
2022/04/23 02:18:12;;;;;;;37.97;22.52;;;10.40;99.90;;;;;;5038955;28;20037;-80
2022/04/23 02:20:39;;;;;;;35.03;20.60;;;10.50;99.90;;;;;;5037201;28;20119;-78
2022/04/23 02:23:07;;;;;;;32.90;21.35;;;10.50;99.90;;;;;;5039146;28;20048;-80
2022/04/23 02:25:35;;;;;;;34.65;20.60;;;10.40;99.90;;;;;;5036892;28;20033;-78
2022/04/23 02:28:02;;;;;;;33.10;19.75;;;10.20;99.90;;;;;;5038375;28;20037;-79
2022/04/23 02:30:32;;;;;;;29.45;18.90;;;10.30;99.90;;;;;;5037006;28;20045;-78
2022/04/23 02:33:00;;;;;;;34.10;20.27;;;10.20;99.90;;;;;;5036893;28;20052;-78
2022/04/23 02:35:28;;;;;;;33.33;22.20;;;10.20;99.90;;;;;;5038239;28;20030;-80
2022/04/23 02:37:57;;;;;;;39.05;23.77;;;10.20;99.90;;;;;;5037326;28;20042;-79
2022/04/23 02:40:25;;;;;;;41.17;21.65;;;10.20;99.90;;;;;;5037196;28;20049;-80
2022/04/23 02:42:53;;;;;;;33.40;21.65;;;10.20;99.90;;;;;;5039394;28;20438;-78
2022/04/23 02:45:20;;;;;;;34.42;21.08;;;10.20;99.90;;;;;;5040612;28;20040;-81
2022/04/23 02:47:51;;;;;;;34.30;20.67;;;10.20;99.90;;;;;;5038279;28;20132;-80
2022/04/23 02:50:26;;;;;;;33.85;20.75;;;10.20;99.90;;;;;;5038490;28;20497;-80
2022/04/23 02:52:55;;;;;;;37.38;20.23;;;10.20;99.90;;;;;;5050499;28;20461;-81
2022/04/23 02:55:23;;;;;;;36.80;20.55;;;10.20;99.90;;;;;;5030126;28;20061;-80
2022/04/23 02:57:51;;;;;;;35.95;20.35;;;10.30;99.90;;;;;;5039295;28;20045;-80
2022/04/23 03:00:19;;;;;;;36.15;19.52;;;10.30;99.90;;;;;;5039766;28;20045;-80
2022/04/23 03:02:47;;;;;;;30.38;20.40;;;10.30;99.90;;;;;;5040152;28;20045;-80
2022/04/23 03:05:16;;;;;;;34.75;20.05;;;10.20;99.90;;;;;;5046928;28;20092;-78
2022/04/23 03:07:44;;;;;;;37.55;19.90;;;10.10;99.90;;;;;;5038306;28;20080;-79
2022/04/23 03:10:14;;;;;;;38.28;21.05;;;10.00;99.90;;;;;;5039722;28;20038;-81
2022/04/23 03:12:41;;;;;;;41.10;22.60;;;10.00;99.90;;;;;;5038154;28;20523;-82
2022/04/23 03:15:11;;;;;;;52.28;24.83;;;10.00;99.90;;;;;;5038971;28;20421;-82
2022/04/23 03:17:39;;;;;;;74.13;33.50;;;9.90;99.90;;;;;;5041329;28;20056;-81
2022/04/23 03:20:09;;;;;;;136.65;50.20;;;9.90;99.90;;;;;;5044930;28;20049;-81
2022/04/23 03:22:39;;;;;;;125.90;49.13;;;9.80;99.90;;;;;;5038798;28;20050;-82
2022/04/23 03:25:07;;;;;;;102.18;46.30;;;9.70;99.90;;;;;;5024179;28;20053;-82
2022/04/23 03:27:35;;;;;;;122.95;51.33;;;9.60;99.90;;;;;;5025298;28;20050;-81
2022/04/23 03:30:03;;;;;;;99.85;40.35;;;9.70;99.90;;;;;;5040145;28;20050;-81
2022/04/23 03:32:31;;;;;;;72.70;34.00;;;9.70;99.90;;;;;;5024500;28;20050;-82
2022/04/23 03:34:59;;;;;;;105.38;31.40;;;9.70;99.90;;;;;;5043340;28;20347;-82
2022/04/23 03:37:27;;;;;;;70.93;37.17;;;9.60;99.90;;;;;;5048105;28;20053;-81
2022/04/23 03:39:56;;;;;;;68.72;31.83;;;9.70;99.90;;;;;;5069695;28;20053;-78
2022/04/23 03:42:24;;;;;;;53.08;26.90;;;9.80;99.90;;;;;;5050018;28;20128;-81
2022/04/23 03:44:51;;;;;;;63.90;28.55;;;9.80;99.90;;;;;;5056940;28;20107;-81
2022/04/23 03:47:19;;;;;;;49.72;25.27;;;9.80;99.90;;;;;;5043487;28;20037;-79
2022/04/23 03:49:46;;;;;;;57.70;27.63;;;9.70;99.90;;;;;;5047382;28;20056;-81
2022/04/23 03:52:14;;;;;;;45.42;22.95;;;9.90;99.90;;;;;;5047285;28;20046;-81
2022/04/23 03:54:41;;;;;;;66.38;30.45;;;9.80;99.90;;;;;;5049677;28;20076;-81
2022/04/23 03:57:10;;;;;;;83.30;31.10;;;9.70;99.90;;;;;;5039978;28;20045;-82
2022/04/23 03:59:38;;;;;;;53.97;24.67;;;9.60;99.90;;;;;;5039478;28;20091;-79
2022/04/23 04:02:06;;;;;;;51.60;25.58;;;9.70;99.90;;;;;;5038933;28;20449;-81
2022/04/23 04:04:34;;;;;;;50.00;23.27;;;9.70;99.90;;;;;;5054976;28;20041;-80
2022/04/23 04:07:02;;;;;;;55.92;24.08;;;9.70;99.90;;;;;;5039054;28;20076;-79
2022/04/23 04:09:30;;;;;;;56.30;23.33;;;9.70;99.90;;;;;;5039665;28;20121;-80
2022/04/23 04:12:03;;;;;;;61.15;22.35;;;9.70;99.90;;;;;;5041520;28;20049;-80
2022/04/23 04:14:37;;;;;;;70.82;21.67;;;9.70;99.90;;;;;;5037482;28;20057;-80
2022/04/23 04:17:06;;;;;;;49.90;21.33;;;9.80;99.90;;;;;;5037326;28;20048;-79
2022/04/23 04:19:35;;;;;;;28.55;17.20;;;9.70;99.90;;;;;;5038534;28;20049;-79
2022/04/23 04:22:03;;;;;;;28.33;15.95;;;9.70;99.90;;;;;;5054390;28;20076;-79
2022/04/23 04:24:31;;;;;;;32.22;16.50;;;9.70;99.90;;;;;;5037017;28;20057;-80
2022/04/23 04:27:00;;;;;;;31.48;15.25;;;9.70;99.90;;;;;;5038571;28;20048;-80
2022/04/23 04:29:29;;;;;;;31.67;15.10;;;9.70;99.90;;;;;;5035889;28;20107;-79
2022/04/23 04:31:58;;;;;;;25.85;16.35;;;9.70;99.90;;;;;;5053269;28;20045;-80
2022/04/23 04:34:28;;;;;;;29.55;18.20;;;9.80;99.90;;;;;;5053472;28;20053;-80
2022/04/23 04:37:03;;;;;;;33.65;18.02;;;9.80;99.90;;;;;;5039162;28;20371;-81
2022/04/23 04:39:30;;;;;;;29.70;18.95;;;9.80;99.90;;;;;;5040304;28;20053;-80
2022/04/23 04:41:58;;;;;;;35.33;19.75;;;9.70;99.90;;;;;;5041555;28;20400;-80
2022/04/23 04:44:26;;;;;;;32.70;19.33;;;9.70;99.90;;;;;;5040591;28;20044;-80
2022/04/23 04:46:53;;;;;;;47.42;20.42;;;9.70;99.90;;;;;;5041608;28;20048;-80
2022/04/23 04:49:23;;;;;;;32.03;17.40;;;9.80;99.90;;;;;;5041082;28;20033;-81
2022/04/23 04:51:50;;;;;;;34.92;20.33;;;10.00;99.90;;;;;;5042332;28;20068;-79
2022/04/23 04:54:18;;;;;;;23.25;15.30;;;10.20;99.90;;;;;;5033175;28;20061;-80
2022/04/23 04:56:46;;;;;;;24.80;15.73;;;10.30;99.90;;;;;;5035483;28;20045;-80
2022/04/23 04:59:13;;;;;;;25.20;15.50;;;10.40;99.90;;;;;;5040795;28;20363;-79
2022/04/23 05:01:42;;;;;;;26.08;15.23;;;10.40;99.90;;;;;;5048858;28;20057;-77
2022/04/23 05:04:09;;;;;;;27.90;16.45;;;10.30;99.90;;;;;;5045571;28;20041;-80
2022/04/23 05:06:38;;;;;;;28.55;18.45;;;10.20;99.90;;;;;;5044013;28;20094;-77
2022/04/23 05:09:06;;;;;;;30.27;18.25;;;10.10;99.90;;;;;;5044819;28;20046;-79
2022/04/23 05:11:33;;;;;;;31.10;19.85;;;10.20;99.90;;;;;;5035546;28;20042;-77
2022/04/23 05:14:01;;;;;;;28.95;17.55;;;10.40;99.90;;;;;;5035812;28;20052;-77
2022/04/23 05:16:28;;;;;;;30.55;18.77;;;10.60;99.90;;;;;;5035732;28;20045;-77
2022/04/23 05:18:55;;;;;;;39.47;22.85;;;10.90;99.90;;;;;;5035316;28;20556;-77
2022/04/23 05:21:23;;;;;;;40.05;23.58;;;11.10;99.90;;;;;;5051138;28;20045;-78
2022/04/23 05:23:51;;;;;;;43.65;24.35;;;11.40;99.90;;;;;;5034618;28;20045;-76
2022/04/23 05:26:19;;;;;;;40.42;23.52;;;11.50;99.90;;;;;;5036414;28;20045;-78
2022/04/23 05:28:47;;;;;;;38.38;22.80;;;11.60;99.90;;;;;;5049842;28;20111;-77
2022/04/23 05:31:14;;;;;;;39.42;21.73;;;11.70;99.90;;;;;;5034734;28;20038;-77
2022/04/23 05:33:42;;;;;;;36.47;21.77;;;12.20;99.90;;;;;;5032906;28;20555;-75
2022/04/23 05:36:10;;;;;;;34.65;21.30;;;12.60;99.90;;;;;;5033484;28;20493;-76
2022/04/23 05:38:37;;;;;;;30.90;21.13;;;12.90;99.90;;;;;;5034364;28;20084;-76
2022/04/23 05:41:06;;;;;;;32.35;20.45;;;12.90;99.90;;;;;;5033627;28;20072;-77
2022/04/23 05:43:33;;;;;;;33.65;21.40;;;12.80;99.90;;;;;;5033445;28;20042;-76
2022/04/23 05:46:02;;;;;;;38.70;25.02;;;12.70;99.90;;;;;;5034492;28;20108;-76
2022/04/23 05:48:29;;;;;;;30.58;18.10;;;12.70;99.90;;;;;;5034516;28;20041;-75
2022/04/23 05:50:57;;;;;;;36.70;24.15;;;12.80;99.90;;;;;;5034406;28;20080;-77
2022/04/23 05:53:24;;;;;;;41.38;26.77;;;13.00;99.90;;;;;;5034804;28;20053;-75
2022/04/23 05:55:53;;;;;;;43.60;26.90;;;13.30;99.90;;;;;;5036456;28;20037;-76
2022/04/23 05:58:22;;;;;;;37.88;25.30;;;13.50;99.90;;;;;;5035733;28;20068;-77
2022/04/23 06:00:50;;;;;;;30.30;20.25;;;13.70;99.90;;;;;;5034043;28;20056;-75
2022/04/23 06:03:18;;;;;;;28.88;19.80;;;13.90;99.90;;;;;;5040452;28;20037;-79
2022/04/23 06:05:45;;;;;;;29.02;18.63;;;13.80;99.90;;;;;;5042613;28;20044;-79
2022/04/23 06:08:13;;;;;;;30.27;18.83;;;13.60;99.90;;;;;;5050474;28;20116;-80
2022/04/23 06:10:41;;;;;;;30.70;19.90;;;13.50;99.90;;;;;;5047623;28;20049;-81
2022/04/23 06:13:09;;;;;;;27.95;18.45;;;13.50;99.90;;;;;;5051216;28;20049;-81
2022/04/23 06:15:38;;;;;;;26.65;17.95;;;13.40;99.90;;;;;;5053324;28;20049;-80
2022/04/23 06:18:06;;;;;;;34.15;18.92;;;13.60;99.90;;;;;;5047694;28;20048;-81
2022/04/23 06:20:33;;;;;;;31.80;19.88;;;13.60;99.90;;;;;;5049544;28;20087;-81
2022/04/23 06:23:04;;;;;;;30.48;19.67;;;13.60;99.90;;;;;;5051100;28;20056;-81
2022/04/23 06:25:32;;;;;;;29.65;19.98;;;13.50;99.90;;;;;;5050060;28;20136;-79
2022/04/23 06:28:00;;;;;;;33.83;19.55;;;13.60;99.90;;;;;;5049517;28;20046;-80
2022/04/23 06:30:27;;;;;;;30.85;18.25;;;13.70;99.90;;;;;;5045273;28;20037;-78
2022/04/23 06:32:56;;;;;;;28.52;17.98;;;13.90;99.90;;;;;;5045649;28;20041;-82
2022/04/23 06:35:24;;;;;;;32.53;19.45;;;14.20;99.90;;;;;;5045552;28;20115;-81
2022/04/23 06:37:54;;;;;;;29.10;18.45;;;14.50;99.90;;;;;;5047968;28;20045;-80
2022/04/23 06:40:21;;;;;;;30.88;17.92;;;14.70;99.90;;;;;;5048275;28;20045;-79
2022/04/23 06:42:49;;;;;;;28.65;17.80;;;14.90;99.90;;;;;;5045818;28;20497;-80
2022/04/23 06:45:20;;;;;;;25.38;16.63;;;15.00;99.90;;;;;;5046283;28;20121;-79
2022/04/23 06:47:47;;;;;;;26.52;16.38;;;15.00;99.90;;;;;;5053263;28;20045;-83
2022/04/23 06:50:16;;;;;;;33.40;19.80;;;15.20;99.90;;;;;;5054784;28;20045;-80
2022/04/23 06:52:45;;;;;;;33.47;18.60;;;15.40;99.90;;;;;;5051266;28;20072;-80
2022/04/23 06:55:12;;;;;;;33.75;18.30;;;15.50;99.90;;;;;;5048040;28;20046;-83
2022/04/23 06:57:46;;;;;;;28.38;17.27;;;15.80;99.90;;;;;;5047666;28;20053;-80
2022/04/23 07:00:15;;;;;;;36.08;21.48;;;16.00;99.90;;;;;;5026417;28;20165;-81
2022/04/23 07:02:42;;;;;;;29.20;20.15;;;16.20;99.90;;;;;;5035038;28;20390;-81
2022/04/23 07:05:10;;;;;;;29.85;20.00;;;16.40;99.90;;;;;;5021440;28;20049;-80
2022/04/23 07:07:39;;;;;;;26.95;16.92;;;16.40;99.90;;;;;;5038145;28;20079;-81
2022/04/23 07:10:07;;;;;;;31.67;18.40;;;16.40;99.90;;;;;;5040220;28;20050;-80
2022/04/23 07:12:35;;;;;;;33.00;19.15;;;16.40;99.90;;;;;;5040230;28;20037;-81
2022/04/23 07:15:03;;;;;;;33.47;20.40;;;16.20;99.90;;;;;;5040147;28;20050;-80
2022/04/23 07:17:31;;;;;;;41.60;23.33;;;16.20;99.90;;;;;;5037407;28;20100;-78
2022/04/23 07:19:58;;;;;;;46.67;25.23;;;16.30;99.90;;;;;;5039411;28;20424;-81
2022/04/23 07:22:25;;;;;;;52.10;29.30;;;16.30;99.90;;;;;;5039140;28;20048;-78
2022/04/23 07:24:54;;;;;;;48.65;26.15;;;16.60;99.90;;;;;;5039152;28;20041;-80
2022/04/23 07:27:23;;;;;;;43.75;24.42;;;16.90;99.90;;;;;;5038060;28;20038;-81
2022/04/23 07:29:51;;;;;;;41.40;22.83;;;17.20;99.90;;;;;;5038405;28;20444;-80
2022/04/23 07:32:20;;;;;;;40.05;23.60;;;17.60;99.90;;;;;;5036839;28;20053;-79
2022/04/23 07:37:33;;;;;;;30.27;17.40;;;17.60;99.90;;;;;;5037477;28;20095;-81
2022/04/23 07:40:05;;;;;;;39.17;21.05;;;17.60;99.90;;;;;;5037180;28;20045;-78
2022/04/23 07:42:33;;;;;;;38.20;19.75;;;17.40;99.90;;;;;;5037201;28;20046;-81
2022/04/23 07:45:00;;;;;;;38.22;22.85;;;17.30;99.90;;;;;;5038767;28;20053;-79
2022/04/23 07:47:28;;;;;;;39.05;23.08;;;17.50;99.90;;;;;;5040016;28;20047;-81
2022/04/23 07:49:56;;;;;;;35.22;21.30;;;17.80;99.90;;;;;;5040012;28;20095;-82
2022/04/23 07:52:23;;;;;;;39.20;23.10;;;17.80;99.90;;;;;;5039964;28;20037;-82
2022/04/23 07:54:50;;;;;;;36.78;20.27;;;17.50;99.90;;;;;;5044415;28;20049;-81
2022/04/23 07:57:23;;;;;;;38.92;21.02;;;17.50;99.90;;;;;;5044424;28;20092;-81
2022/04/23 07:59:51;;;;;;;39.97;19.63;;;17.60;99.90;;;;;;5028123;28;20053;-81
2022/04/23 08:02:20;;;;;;;24.77;14.48;;;17.90;99.90;;;;;;5036895;28;20051;-81
2022/04/23 08:04:48;;;;;;;22.30;12.68;;;18.10;99.90;;;;;;5028710;28;20072;-81
2022/04/23 08:07:15;;;;;;;30.83;17.95;;;18.20;99.90;;;;;;5035087;28;20061;-81
2022/04/23 08:09:42;;;;;;;27.75;15.23;;;18.40;99.90;;;;;;5035271;28;20141;-77
2022/04/23 08:12:12;;;;;;;26.00;14.18;;;18.20;99.90;;;;;;5059283;28;20069;-79
2022/04/23 08:14:42;;;;;;;25.23;14.82;;;18.40;99.90;;;;;;5048650;28;20045;-81
2022/04/23 08:17:09;;;;;;;28.75;12.98;;;18.60;99.90;;;;;;5050758;28;20040;-81
2022/04/23 08:19:37;;;;;;;19.08;10.70;;;18.80;99.90;;;;;;5059646;28;20142;-81
2022/04/23 08:22:05;;;;;;;23.50;12.55;;;19.20;99.90;;;;;;5044293;28;20037;-82
2022/04/23 08:24:32;;;;;;;23.88;11.80;;;18.80;99.90;;;;;;5040023;28;20068;-81
2022/04/23 08:27:00;;;;;;;24.63;14.30;;;18.70;99.90;;;;;;5041765;28;20038;-78
2022/04/23 08:32:14;;;;;;;21.42;11.88;;;19.60;99.90;;;;;;5042373;28;20040;-80
2022/04/23 08:34:41;;;;;;;22.30;12.15;;;19.90;99.90;;;;;;5059190;28;20566;-80
2022/04/23 08:37:09;;;;;;;21.55;11.38;;;19.90;99.90;;;;;;5042935;28;20033;-82
2022/04/23 08:39:37;;;;;;;24.00;12.18;;;19.50;99.90;;;;;;5045995;28;20048;-82
2022/04/23 08:42:08;;;;;;;22.98;13.00;;;19.20;99.90;;;;;;5053078;28;20054;-78
2022/04/23 08:44:37;;;;;;;22.92;12.70;;;19.10;99.90;;;;;;5049398;28;20120;-78
2022/04/23 08:47:07;;;;;;;26.98;13.35;;;19.10;99.90;;;;;;5048423;28;20044;-78
2022/04/23 08:49:40;;;;;;;23.92;12.60;;;19.20;99.90;;;;;;5049425;28;20055;-77
2022/04/23 08:52:15;;;;;;;18.13;10.70;;;19.40;99.90;;;;;;5050871;28;20096;-80
2022/04/23 08:54:43;;;;;;;20.40;9.80;;;19.20;99.90;;;;;;5053394;28;20073;-81
2022/04/23 08:57:11;;;;;;;20.65;10.10;;;19.20;99.90;;;;;;5070990;28;20054;-79
2022/04/23 08:59:39;;;;;;;17.50;8.57;;;19.40;99.90;;;;;;5061051;28;20050;-80
2022/04/23 09:02:13;;;;;;;15.27;9.70;;;19.50;99.90;;;;;;5057339;28;20487;-80
2022/04/23 09:04:42;;;;;;;20.38;11.73;;;19.70;99.90;;;;;;5039198;28;20053;-78
2022/04/23 09:07:19;;;;;;;23.92;13.18;;;19.70;99.90;;;;;;5029611;28;20045;-79
2022/04/23 09:09:50;;;;;;;22.92;10.80;;;19.90;99.90;;;;;;5040100;28;20041;-80
2022/04/23 09:12:18;;;;;;;19.10;9.52;;;19.80;99.90;;;;;;5056873;28;20045;-79
2022/04/23 09:14:46;;;;;;;19.73;10.93;;;19.90;99.90;;;;;;5042216;28;20060;-80
2022/04/23 09:25:40;;;;;;;14.45;6.85;;;20.00;99.90;;;;;;5054632;28;20060;-81
2022/04/23 09:28:20;;;;;;;10.65;6.43;;;20.20;99.90;;;;;;5034510;28;20049;-80
2022/04/23 09:30:49;;;;;;;12.90;7.65;;;20.30;99.90;;;;;;5042383;28;20049;-81
2022/04/23 09:33:17;;;;;;;9.15;5.03;;;20.30;99.90;;;;;;5046413;28;20493;-78
2022/04/23 09:35:57;;;;;;;18.08;6.07;;;20.30;99.90;;;;;;5041255;28;20050;-82
2022/04/23 09:38:25;;;;;;;12.18;6.13;;;20.30;99.90;;;;;;5057425;28;20053;-79
2022/04/23 09:40:53;;;;;;;18.75;8.05;;;20.20;99.90;;;;;;5055396;28;20083;-79
2022/04/23 09:43:29;;;;;;;16.98;8.25;;;20.20;99.90;;;;;;5040617;28;20057;-80
2022/04/23 09:46:05;;;;;;;17.90;5.35;;;20.40;99.90;;;;;;5060425;28;20049;-81
2022/04/23 09:48:33;;;;;;;12.27;6.57;;;20.60;99.90;;;;;;5045669;28;20053;-79
2022/04/23 09:51:02;;;;;;;11.18;5.65;;;20.80;99.90;;;;;;5049741;28;20105;-77
2022/04/23 09:53:29;;;;;;;11.50;5.38;;;21.00;99.90;;;;;;5043223;28;20073;-81
2022/04/23 09:56:00;;;;;;;12.05;5.80;;;21.00;99.90;;;;;;5041046;28;20041;-81
2022/04/23 09:58:29;;;;;;;13.50;7.97;;;21.10;99.90;;;;;;5040352;28;20080;-81
2022/04/23 10:00:57;;;;;;;12.25;6.15;;;20.80;99.90;;;;;;5040888;28;20053;-82
2022/04/23 10:03:29;;;;;;;16.13;5.80;;;20.50;99.90;;;;;;5044117;28;20046;-81
2022/04/23 10:05:58;;;;;;;13.20;7.50;;;20.40;99.90;;;;;;5046236;28;20041;-78
2022/04/23 10:08:29;;;;;;;12.85;5.32;;;20.40;99.90;;;;;;5066541;28;20050;-78
2022/04/23 10:11:01;;;;;;;12.25;5.43;;;20.50;99.90;;;;;;5046475;28;20049;-80
2022/04/23 10:13:30;;;;;;;9.70;3.92;;;20.60;99.90;;;;;;5050183;28;20098;-79
2022/04/23 10:15:59;;;;;;;9.85;5.30;;;20.90;99.90;;;;;;5068716;28;20084;-78
2022/04/23 10:18:27;;;;;;;9.43;4.47;;;21.00;99.90;;;;;;5050652;28;20053;-79
2022/04/23 10:20:58;;;;;;;9.70;5.05;;;21.00;99.90;;;;;;5049285;28;20041;-79
2022/04/23 10:23:42;;;;;;;17.23;11.75;;;20.90;99.90;;;;;;5044948;28;20057;-78
2022/04/23 10:26:34;;;;;;;10.90;4.45;;;20.90;99.90;;;;;;5052459;28;20045;-79
2022/04/23 10:29:03;;;;;;;7.75;4.40;;;21.00;99.90;;;;;;5043546;28;20115;-80
2022/04/23 10:31:30;;;;;;;12.05;3.90;;;21.30;99.90;;;;;;5040475;28;20390;-80
2022/04/23 10:33:58;;;;;;;16.88;7.43;;;21.20;99.90;;;;;;5056365;28;20049;-81
2022/04/23 10:36:25;;;;;;;12.48;5.32;;;21.30;99.90;;;;;;5056448;28;20084;-81
2022/04/23 10:39:20;;;;;;;11.20;5.10;;;21.40;99.90;;;;;;5041254;28;20049;-82
2022/04/23 10:41:50;;;;;;;12.88;6.50;;;21.70;99.90;;;;;;5040186;28;20117;-82
2022/04/23 10:44:22;;;;;;;16.08;7.40;;;22.00;99.90;;;;;;5041164;28;20109;-83
2022/04/23 10:46:51;;;;;;;13.55;6.38;;;22.10;99.90;;;;;;5039913;28;20048;-81
2022/04/23 10:49:20;;;;;;;11.65;4.97;;;22.20;99.90;;;;;;5057329;28;20045;-80
2022/04/23 10:51:49;;;;;;;6.85;3.38;;;22.20;99.90;;;;;;5042448;28;20060;-80
2022/04/23 10:54:21;;;;;;;14.18;6.20;;;22.20;99.90;;;;;;5040370;28;20060;-78
2022/04/23 10:56:54;;;;;;;13.10;6.10;;;22.30;99.90;;;;;;5039618;28;20053;-80
2022/04/23 10:59:36;;;;;;;10.73;5.57;;;22.50;99.90;;;;;;5039838;28;20037;-81
2022/04/23 11:02:06;;;;;;;9.02;4.40;;;22.50;99.90;;;;;;5039013;28;20057;-82
2022/04/23 11:04:34;;;;;;;7.82;4.70;;;22.90;99.90;;;;;;5040140;28;20068;-81
2022/04/23 11:12:37;;;;;;;8.35;3.80;;;23.20;99.60;;;;;;5038010;28;20440;-78
2022/04/23 11:15:18;;;;;;;6.72;4.22;;;23.10;99.50;;;;;;5036857;28;20069;-78
2022/04/23 11:17:54;;;;;;;8.40;5.53;;;22.80;99.70;;;;;;5044021;28;20068;-78
2022/04/23 11:20:42;;;;;;;8.80;3.25;;;22.80;99.90;;;;;;5054101;28;20053;-78
2022/04/23 11:23:10;;;;;;;5.57;2.97;;;22.70;99.40;;;;;;5034928;28;20195;-77
2022/04/23 11:25:39;;;;;;;7.25;2.90;;;22.80;99.30;;;;;;5036929;28;20041;-78
2022/04/23 11:28:14;;;;;;;6.47;2.72;;;23.00;98.60;;;;;;5035940;28;20444;-79
2022/04/23 11:30:41;;;;;;;6.10;2.45;;;22.90;98.70;;;;;;5037378;28;20119;-77
2022/04/23 11:33:13;;;;;;;8.40;3.22;;;22.60;98.70;;;;;;5037431;28;20049;-77
2022/04/23 11:35:42;;;;;;;10.90;4.38;;;22.20;99.20;;;;;;5053467;28;20045;-76
2022/04/23 11:38:20;;;;;;;10.23;4.40;;;22.30;99.60;;;;;;5041214;28;20117;-78
2022/04/23 11:40:49;;;;;;;9.43;4.78;;;22.60;99.70;;;;;;5060530;28;20162;-78
2022/04/23 11:43:30;;;;;;;10.60;4.50;;;22.90;99.40;;;;;;5044627;28;20045;-78
2022/04/23 11:46:02;;;;;;;15.13;5.70;;;23.10;99.00;;;;;;5042890;28;20041;-77
2022/04/23 11:48:39;;;;;;;10.35;4.03;;;23.10;98.80;;;;;;5042320;28;20075;-78
2022/04/23 11:51:07;;;;;;;12.00;5.40;;;22.90;98.30;;;;;;5043759;28;20053;-76
2022/04/23 11:54:02;;;;;;;10.48;4.60;;;23.00;99.00;;;;;;5045855;28;20058;-79
2022/04/23 11:56:32;;;;;;;15.07;4.78;;;22.80;98.60;;;;;;5017537;28;20519;-77
2022/04/23 11:59:03;;;;;;;10.43;5.10;;;22.60;99.40;;;;;;5040138;28;20369;-76
2022/04/23 12:01:30;;;;;;;10.63;5.05;;;22.70;99.50;;;;;;5039617;28;20575;-78
2022/04/23 12:03:59;;;;;;;13.45;6.05;;;22.70;99.20;;;;;;5042884;28;20053;-78
2022/04/23 12:06:27;;;;;;;10.00;5.03;;;22.80;99.10;;;;;;5045017;28;20059;-78
2022/04/23 12:09:07;;;;;;;14.88;5.68;;;22.80;99.20;;;;;;5046762;28;20041;-78
2022/04/23 12:11:36;;;;;;;11.13;3.90;;;23.00;99.30;;;;;;5040321;28;20521;-79
2022/04/23 12:14:04;;;;;;;11.18;4.53;;;23.00;98.30;;;;;;5042158;28;20115;-78
2022/04/23 12:16:32;;;;;;;7.95;4.00;;;23.40;98.00;;;;;;5043274;28;20046;-79
2022/04/23 12:19:01;;;;;;;6.78;3.20;;;23.30;97.10;;;;;;5042712;28;20048;-77
2022/04/23 12:21:29;;;;;;;6.72;3.28;;;23.00;97.00;;;;;;5040878;28;20092;-77
2022/04/23 12:23:56;;;;;;;7.72;3.10;;;22.80;97.30;;;;;;5040506;28;20054;-78
2022/04/23 12:26:24;;;;;;;8.63;4.05;;;22.80;97.20;;;;;;5042190;28;20052;-78
2022/04/23 12:43:23;;;;;;;8.15;3.45;;;23.30;97.70;;;;;;5036023;28;20395;-77
2022/04/23 12:46:05;;;;;;;8.85;3.65;;;22.70;97.40;;;;;;5026901;28;20528;-80
2022/04/23 12:48:34;;;;;;;7.65;4.57;;;22.60;98.70;;;;;;5024454;28;20061;-80
2022/04/23 12:51:06;;;;;;;6.47;3.63;;;22.40;98.50;;;;;;5031493;28;20049;-78
2022/04/23 12:53:38;;;;;;;7.95;4.20;;;22.40;98.20;;;;;;5033948;28;20493;-78
2022/04/23 12:56:08;;;;;;;13.63;5.68;;;22.40;99.00;;;;;;5024665;28;20061;-79
2022/04/23 12:58:35;;;;;;;17.95;10.60;;;22.40;98.40;;;;;;5037642;28;20489;-80
2022/04/23 13:01:05;;;;;;;10.55;5.03;;;22.50;98.90;;;;;;5036560;28;20139;-78
2022/04/23 13:03:35;;;;;;;10.30;5.45;;;22.60;98.30;;;;;;5035547;28;20041;-78
2022/04/23 13:06:04;;;;;;;6.85;5.07;;;22.80;98.20;;;;;;5035137;28;20509;-76
2022/04/23 13:11:26;;;;;;;12.70;4.68;;;22.80;97.70;;;;;;5032261;28;20065;-77
2022/04/23 13:13:55;;;;;;;12.02;4.30;;;22.90;98.80;;;;;;5025779;28;20054;-75
2022/04/23 13:16:25;;;;;;;10.57;4.50;;;22.80;97.60;;;;;;5018005;28;20042;-79
2022/04/23 13:18:55;;;;;;;8.85;3.80;;;22.80;97.90;;;;;;5018801;28;20045;-78